Time;durP1;ratioP1;P1;durP2;ratioP2;P2;SDS_P1;SDS_P2;PMS_P1;PMS_P2;Temp;Humidity;BMP_temperature;BMP_pressure;BME280_temperature;BME280_humidity;BME280_pressure;Samples;Min_cycle;Max_cycle;Signal;HPM_P1;HPM_P2
2023/06/22 00:00:18;;;;;;;12.77;5.57;;;21.00;82.20;;;;;;4779594;29;20051;-91
2023/06/22 00:02:46;;;;;;;13.35;5.50;;;21.10;82.00;;;;;;4793931;29;20054;-91
2023/06/22 00:05:13;;;;;;;15.15;5.68;;;21.10;82.00;;;;;;4794568;29;20046;-91
2023/06/22 00:07:40;;;;;;;11.23;5.20;;;21.10;81.90;;;;;;4778303;30;20062;-91
2023/06/22 00:10:08;;;;;;;12.27;5.35;;;21.10;81.70;;;;;;4775986;30;20059;-91
2023/06/22 00:12:35;;;;;;;10.80;5.07;;;21.10;81.70;;;;;;4761373;30;20059;-91
2023/06/22 00:15:05;;;;;;;13.10;5.85;;;21.10;81.90;;;;;;4776355;30;20068;-91
2023/06/22 00:17:32;;;;;;;11.88;5.30;;;21.10;81.70;;;;;;4776044;30;20062;-91
2023/06/22 00:20:00;;;;;;;10.57;5.28;;;21.10;81.60;;;;;;4761322;30;20055;-91
2023/06/22 00:22:30;;;;;;;9.40;4.50;;;21.10;81.40;;;;;;4761556;30;20058;-91
2023/06/22 00:24:57;;;;;;;10.20;3.93;;;21.00;81.20;;;;;;4764507;29;20520;-91
2023/06/22 00:27:24;;;;;;;10.60;4.10;;;20.90;81.20;;;;;;4793920;29;20059;-91
2023/06/22 00:29:51;;;;;;;9.15;3.65;;;20.90;81.20;;;;;;4793004;29;20097;-91
2023/06/22 00:32:19;;;;;;;12.48;4.18;;;20.90;81.20;;;;;;4779116;29;20059;-91
2023/06/22 00:34:47;;;;;;;9.98;4.00;;;20.80;81.20;;;;;;4794280;29;20053;-91
2023/06/22 00:37:14;;;;;;;8.30;3.67;;;20.80;81.20;;;;;;4793719;29;20146;-91
2023/06/22 00:39:43;;;;;;;10.82;3.60;;;20.70;81.30;;;;;;4793963;29;20046;-92
2023/06/22 00:42:11;;;;;;;8.98;3.45;;;20.70;81.20;;;;;;4778612;29;20063;-91
2023/06/22 00:44:38;;;;;;;8.63;3.75;;;20.70;81.10;;;;;;4793769;29;20054;-92
2023/06/22 00:47:06;;;;;;;9.13;3.58;;;20.70;81.30;;;;;;4793699;29;20081;-92
2023/06/22 00:49:33;;;;;;;10.50;3.70;;;20.70;81.40;;;;;;4793799;29;20057;-91
2023/06/22 00:52:02;;;;;;;8.15;3.33;;;20.70;81.10;;;;;;4778507;29;20055;-92
2023/06/22 00:54:30;;;;;;;12.45;3.88;;;20.70;81.20;;;;;;4793107;29;20055;-92
2023/06/22 00:56:59;;;;;;;12.10;4.60;;;20.80;80.80;;;;;;4793341;29;20057;-92
2023/06/22 00:59:28;;;;;;;12.93;4.78;;;20.80;80.60;;;;;;4793022;29;20047;-91
2023/06/22 01:01:55;;;;;;;13.13;5.43;;;20.90;80.50;;;;;;4787477;30;20108;-91
2023/06/22 01:04:33;;;;;;;14.20;5.75;;;20.80;80.80;;;;;;4760729;30;20108;-92
2023/06/22 01:07:22;;;;;;;15.82;6.53;;;20.80;80.80;;;;;;4775409;30;20413;-91
2023/06/22 01:10:12;;;;;;;16.33;6.38;;;20.70;81.10;;;;;;4760531;30;20063;-92
2023/06/22 01:12:45;;;;;;;15.93;6.13;;;20.60;81.50;;;;;;4775111;29;20055;-92
2023/06/22 01:15:21;;;;;;;16.17;6.97;;;20.60;81.60;;;;;;4787080;30;20044;-92
2023/06/22 01:17:52;;;;;;;16.90;6.78;;;20.60;81.80;;;;;;4781168;29;20046;-92
2023/06/22 01:20:22;;;;;;;14.90;5.63;;;20.60;81.50;;;;;;4785876;30;20051;-91
2023/06/22 01:23:09;;;;;;;13.20;4.57;;;20.60;81.50;;;;;;4776023;29;20054;-92
2023/06/22 01:25:42;;;;;;;10.63;3.72;;;20.50;81.50;;;;;;4778072;29;20043;-91
2023/06/22 01:28:38;;;;;;;9.50;3.07;;;20.40;81.70;;;;;;4792850;29;20054;-91
2023/06/22 01:31:08;;;;;;;9.05;3.60;;;20.30;82.00;;;;;;4792867;29;20405;-91
2023/06/22 01:33:41;;;;;;;9.48;3.60;;;20.30;82.20;;;;;;4792660;29;20510;-91
2023/06/22 01:36:14;;;;;;;10.40;3.67;;;20.20;82.40;;;;;;4788173;30;20043;-90
2023/06/22 01:38:43;;;;;;;10.65;4.35;;;20.10;82.20;;;;;;4774869;30;20055;-91
2023/06/22 01:41:11;;;;;;;11.40;3.37;;;20.10;82.40;;;;;;4774698;30;20120;-91
2023/06/22 01:43:39;;;;;;;9.63;4.13;;;20.10;82.60;;;;;;4774880;30;20079;-92
2023/06/22 01:46:06;;;;;;;10.10;4.05;;;20.10;82.60;;;;;;4760115;30;20055;-90
2023/06/22 01:48:34;;;;;;;9.63;4.78;;;20.00;82.50;;;;;;4764676;30;20063;-93
2023/06/22 01:51:05;;;;;;;14.50;6.43;;;20.00;82.70;;;;;;4777093;29;20074;-93
2023/06/22 01:53:32;;;;;;;14.70;5.33;;;20.00;82.80;;;;;;4772534;29;20494;-92
2023/06/22 01:56:00;;;;;;;17.88;6.30;;;20.00;83.10;;;;;;4768581;29;20414;-93
2023/06/22 01:58:30;;;;;;;12.18;6.28;;;20.00;83.00;;;;;;4774225;30;20047;-93
2023/06/22 02:01:12;;;;;;;14.95;6.45;;;20.00;83.00;;;;;;4759810;30;20064;-91
2023/06/22 02:03:50;;;;;;;13.05;7.00;;;20.00;82.60;;;;;;4759481;30;20145;-91
2023/06/22 02:06:27;;;;;;;17.40;6.60;;;20.10;82.60;;;;;;4774869;30;20146;-91
2023/06/22 02:08:59;;;;;;;18.77;6.50;;;20.10;82.60;;;;;;4759438;30;20066;-91
2023/06/22 02:11:30;;;;;;;19.80;8.00;;;20.10;82.50;;;;;;4791098;29;20059;-91
2023/06/22 02:13:58;;;;;;;15.85;6.57;;;20.10;82.30;;;;;;4791939;29;20055;-91
2023/06/22 02:16:29;;;;;;;23.27;7.97;;;20.20;82.30;;;;;;4792451;29;20050;-92
2023/06/22 02:19:02;;;;;;;20.93;8.97;;;20.30;81.80;;;;;;4775283;30;20066;-90
2023/06/22 02:21:33;;;;;;;22.35;8.68;;;20.30;81.50;;;;;;4759636;30;20528;-91
2023/06/22 02:24:01;;;;;;;18.90;7.63;;;20.30;81.30;;;;;;4779143;29;20141;-91
2023/06/22 02:26:30;;;;;;;15.88;6.10;;;20.30;81.20;;;;;;4780504;29;20142;-91
2023/06/22 02:28:57;;;;;;;12.93;5.25;;;20.30;81.00;;;;;;4791931;29;20051;-91
2023/06/22 02:31:30;;;;;;;10.57;4.40;;;20.30;81.20;;;;;;4767823;30;20056;-91
2023/06/22 02:34:01;;;;;;;10.75;4.47;;;20.20;81.30;;;;;;4783342;29;20145;-91
2023/06/22 02:36:30;;;;;;;9.68;3.67;;;20.10;81.60;;;;;;4774706;30;20047;-90
2023/06/22 02:39:01;;;;;;;8.07;3.25;;;20.00;82.00;;;;;;4779937;30;20053;-90
2023/06/22 02:41:30;;;;;;;8.93;3.40;;;20.00;82.00;;;;;;4764348;30;20079;-90
2023/06/22 02:43:57;;;;;;;10.77;3.30;;;20.10;81.90;;;;;;4766502;30;20055;-90
2023/06/22 02:46:25;;;;;;;12.60;3.85;;;20.00;81.80;;;;;;4766364;29;20054;-91
2023/06/22 02:48:52;;;;;;;7.82;3.45;;;20.10;81.70;;;;;;4757193;30;20143;-91
2023/06/22 02:51:20;;;;;;;9.32;3.60;;;20.10;81.60;;;;;;4765069;30;20067;-90
2023/06/22 02:53:47;;;;;;;11.35;3.92;;;20.10;81.50;;;;;;4786838;29;20054;-91
2023/06/22 02:56:17;;;;;;;8.23;3.77;;;20.10;81.40;;;;;;4745008;30;20138;-91
2023/06/22 02:58:48;;;;;;;16.15;4.88;;;20.10;81.40;;;;;;4774626;29;20475;-91
2023/06/22 03:01:15;;;;;;;13.55;5.00;;;20.00;81.90;;;;;;4762757;30;20058;-91
2023/06/22 03:03:46;;;;;;;9.63;3.90;;;20.00;82.20;;;;;;4777211;30;20063;-92
2023/06/22 03:06:13;;;;;;;9.55;3.85;;;20.00;82.00;;;;;;4778030;30;20050;-91
2023/06/22 03:08:42;;;;;;;12.07;3.60;;;20.00;81.90;;;;;;4788038;29;20055;-92
2023/06/22 03:11:10;;;;;;;11.60;3.58;;;20.00;81.80;;;;;;4795468;29;20054;-93
2023/06/22 03:13:40;;;;;;;8.25;3.55;;;20.00;81.60;;;;;;4767667;30;20538;-92
2023/06/22 03:16:08;;;;;;;10.88;3.58;;;20.00;81.50;;;;;;4774226;29;20055;-92
2023/06/22 03:18:36;;;;;;;13.13;4.20;;;20.10;81.30;;;;;;4760887;30;20058;-92
2023/06/22 03:21:03;;;;;;;14.23;4.27;;;20.10;81.20;;;;;;4787912;29;20051;-92
2023/06/22 03:23:31;;;;;;;8.45;3.30;;;20.10;81.10;;;;;;4782324;30;20043;-93
2023/06/22 03:25:58;;;;;;;8.38;3.33;;;20.10;81.20;;;;;;4781522;30;20063;-93
2023/06/22 03:28:25;;;;;;;9.27;3.55;;;20.10;81.40;;;;;;4776908;30;20051;-92
2023/06/22 03:30:52;;;;;;;11.98;4.05;;;20.00;81.60;;;;;;4762365;30;20073;-93
2023/06/22 03:33:20;;;;;;;9.83;4.03;;;20.00;81.70;;;;;;4768179;30;20054;-92
2023/06/22 03:35:47;;;;;;;8.90;3.45;;;20.00;81.90;;;;;;4776715;30;20062;-93
2023/06/22 03:38:14;;;;;;;10.98;4.63;;;20.00;81.90;;;;;;4769293;29;20062;-92
2023/06/22 03:40:42;;;;;;;11.98;4.60;;;20.00;82.00;;;;;;4763689;29;20403;-92
2023/06/22 03:43:09;;;;;;;10.05;4.30;;;19.90;82.20;;;;;;4766079;30;20073;-92
2023/06/22 03:45:40;;;;;;;10.80;3.80;;;19.90;82.40;;;;;;4784597;29;20051;-93
2023/06/22 03:48:07;;;;;;;10.10;3.20;;;19.90;82.30;;;;;;4794579;29;20065;-92
2023/06/22 03:50:34;;;;;;;8.45;3.47;;;19.80;82.10;;;;;;4794612;29;20050;-93
2023/06/22 03:53:04;;;;;;;9.30;3.47;;;19.90;82.20;;;;;;4780146;29;20502;-93
2023/06/22 03:55:33;;;;;;;11.98;3.88;;;20.00;81.90;;;;;;4782719;29;20449;-93
2023/06/22 03:58:05;;;;;;;9.93;3.40;;;20.00;81.90;;;;;;4793998;29;20062;-94
2023/06/22 04:00:33;;;;;;;10.55;3.72;;;20.00;81.70;;;;;;4785118;29;20051;-91
2023/06/22 04:03:00;;;;;;;10.13;3.67;;;20.00;81.70;;;;;;4785162;29;20494;-93
2023/06/22 04:05:28;;;;;;;11.30;3.80;;;20.00;81.50;;;;;;4792836;29;20059;-91
2023/06/22 04:07:55;;;;;;;8.85;3.60;;;19.90;81.90;;;;;;4778750;29;20518;-92
2023/06/22 04:10:22;;;;;;;8.47;3.50;;;19.90;82.00;;;;;;4794040;29;20059;-92
2023/06/22 04:12:49;;;;;;;11.88;3.35;;;19.90;82.10;;;;;;4778016;29;20047;-91
2023/06/22 04:15:16;;;;;;;9.43;3.53;;;19.90;82.20;;;;;;4779727;30;20391;-93
2023/06/22 04:17:43;;;;;;;8.35;3.67;;;19.90;82.20;;;;;;4775446;30;20048;-92
2023/06/22 04:20:11;;;;;;;10.55;3.00;;;20.10;82.00;;;;;;4775783;30;20055;-92
2023/06/22 04:22:41;;;;;;;7.97;2.67;;;20.30;81.40;;;;;;4761211;30;20048;-93
2023/06/22 04:25:08;;;;;;;9.32;3.25;;;20.50;80.40;;;;;;4785248;29;20061;-93
2023/06/22 04:27:37;;;;;;;7.10;2.85;;;20.60;80.30;;;;;;4760982;30;20052;-92
2023/06/22 04:30:06;;;;;;;8.77;2.88;;;20.70;79.30;;;;;;4781512;30;20055;-93
2023/06/22 04:32:37;;;;;;;8.60;3.10;;;20.70;79.70;;;;;;4786762;29;20046;-90
2023/06/22 04:35:06;;;;;;;9.33;3.60;;;20.90;79.50;;;;;;4766527;29;20510;-91
2023/06/22 04:37:33;;;;;;;9.98;3.20;;;21.10;78.80;;;;;;4781732;29;20100;-91
2023/06/22 04:40:01;;;;;;;12.15;3.15;;;21.10;78.60;;;;;;4784758;29;20077;-91
2023/06/22 04:42:28;;;;;;;7.85;3.40;;;21.10;78.70;;;;;;4773185;29;20398;-91
2023/06/22 04:44:55;;;;;;;9.35;3.53;;;21.10;78.70;;;;;;4782176;29;20074;-91
2023/06/22 04:47:22;;;;;;;8.43;2.87;;;21.10;78.90;;;;;;4774846;29;20091;-91
2023/06/22 04:49:49;;;;;;;7.70;3.17;;;21.20;79.40;;;;;;4778961;29;20468;-92
2023/06/22 04:52:20;;;;;;;8.85;3.13;;;21.30;78.40;;;;;;4786429;29;20101;-91
2023/06/22 04:54:55;;;;;;;9.88;3.05;;;21.50;78.00;;;;;;4771797;29;20524;-91
2023/06/22 04:57:30;;;;;;;6.63;2.88;;;21.60;77.40;;;;;;4788669;29;20043;-91
2023/06/22 05:00:11;;;;;;;8.23;3.10;;;21.60;77.40;;;;;;4785842;29;20562;-91
2023/06/22 05:02:39;;;;;;;8.70;3.28;;;21.60;77.00;;;;;;4783084;29;20142;-91
2023/06/22 05:05:07;;;;;;;8.10;2.70;;;21.60;77.20;;;;;;4783427;29;20051;-92
2023/06/22 05:07:35;;;;;;;9.50;2.92;;;21.80;76.80;;;;;;4774854;29;20055;-92
2023/06/22 05:10:05;;;;;;;8.48;3.35;;;21.90;77.00;;;;;;4770482;30;20074;-91
2023/06/22 05:12:33;;;;;;;9.13;2.80;;;22.00;76.10;;;;;;4772727;29;20047;-92
2023/06/22 05:15:01;;;;;;;7.70;2.65;;;22.10;75.60;;;;;;4785021;29;20541;-92
2023/06/22 05:17:30;;;;;;;9.60;3.00;;;22.10;75.70;;;;;;4779280;29;20080;-91
2023/06/22 05:19:58;;;;;;;8.32;2.97;;;22.10;76.20;;;;;;4773301;29;20460;-91
2023/06/22 05:22:25;;;;;;;9.55;3.20;;;22.20;75.70;;;;;;4766852;29;20038;-91
2023/06/22 05:24:52;;;;;;;9.43;3.00;;;22.40;75.60;;;;;;4776458;29;20086;-91
2023/06/22 05:27:22;;;;;;;7.63;2.80;;;22.60;75.60;;;;;;4787769;29;20046;-92
2023/06/22 05:29:52;;;;;;;9.57;3.63;;;22.80;76.10;;;;;;4780585;29;20450;-91
2023/06/22 05:32:19;;;;;;;9.65;3.67;;;23.00;75.40;;;;;;4780151;29;20571;-92
2023/06/22 05:34:46;;;;;;;11.18;4.03;;;23.10;74.90;;;;;;4769553;29;20094;-92
2023/06/22 05:37:14;;;;;;;11.43;3.60;;;23.30;75.70;;;;;;4763863;29;20065;-92
2023/06/22 05:39:41;;;;;;;11.07;4.28;;;23.50;75.00;;;;;;4785059;29;20465;-92
2023/06/22 05:42:08;;;;;;;14.02;5.57;;;23.60;73.30;;;;;;4785577;29;20059;-92
2023/06/22 05:44:40;;;;;;;16.15;6.28;;;23.60;73.20;;;;;;4771937;29;20130;-92
2023/06/22 05:47:07;;;;;;;13.40;5.32;;;23.70;72.30;;;;;;4782991;29;20058;-92
2023/06/22 05:49:35;;;;;;;13.23;5.37;;;23.80;71.10;;;;;;4782928;29;20196;-91
2023/06/22 05:52:02;;;;;;;14.07;5.25;;;24.00;71.40;;;;;;4786461;30;20047;-92
2023/06/22 05:54:33;;;;;;;12.68;5.68;;;24.10;71.70;;;;;;4786743;29;20043;-92
2023/06/22 05:57:00;;;;;;;20.58;6.75;;;24.20;70.00;;;;;;4782749;29;20452;-91
2023/06/22 05:59:27;;;;;;;17.48;7.15;;;24.20;69.10;;;;;;4777987;29;20043;-92
2023/06/22 06:01:54;;;;;;;16.27;6.93;;;24.20;69.30;;;;;;4782911;29;20038;-92
2023/06/22 06:04:21;;;;;;;16.83;6.65;;;24.20;69.60;;;;;;4780915;29;20043;-92
2023/06/22 06:06:49;;;;;;;16.20;6.40;;;24.30;70.20;;;;;;4768152;29;20142;-91
2023/06/22 06:09:19;;;;;;;14.50;6.82;;;24.30;69.70;;;;;;4778449;29;20099;-92
2023/06/22 06:11:46;;;;;;;17.88;6.80;;;24.40;69.90;;;;;;4779924;29;20108;-92
2023/06/22 06:14:17;;;;;;;16.30;6.90;;;24.50;70.00;;;;;;4784748;29;20466;-92
2023/06/22 06:16:44;;;;;;;17.08;7.30;;;24.60;70.60;;;;;;4775984;29;20126;-91
2023/06/22 06:19:11;;;;;;;16.33;8.55;;;24.70;71.80;;;;;;4767128;29;20055;-91
2023/06/22 06:21:38;;;;;;;18.98;8.23;;;24.80;69.80;;;;;;4781362;30;20402;-91
2023/06/22 06:24:06;;;;;;;15.73;8.43;;;24.80;68.60;;;;;;4773196;29;20046;-91
2023/06/22 06:26:35;;;;;;;16.63;7.73;;;24.80;69.30;;;;;;4781610;29;20051;-92
2023/06/22 06:29:05;;;;;;;18.98;7.88;;;24.80;68.80;;;;;;4785090;29;20112;-92
2023/06/22 06:31:33;;;;;;;16.05;8.00;;;24.80;69.40;;;;;;4762765;29;20494;-91
2023/06/22 06:34:00;;;;;;;17.17;8.48;;;25.00;69.50;;;;;;4780636;29;20075;-90
2023/06/22 06:36:27;;;;;;;16.00;8.70;;;25.00;69.70;;;;;;4782705;29;20047;-91
2023/06/22 06:38:55;;;;;;;15.37;9.20;;;25.10;69.80;;;;;;4779971;29;20051;-91
2023/06/22 06:41:22;;;;;;;16.88;9.32;;;25.10;69.60;;;;;;4785323;29;20042;-91
2023/06/22 06:43:50;;;;;;;17.52;10.65;;;25.20;70.00;;;;;;4772750;29;20101;-91
2023/06/22 06:46:19;;;;;;;17.40;10.55;;;25.10;68.90;;;;;;4775267;29;20138;-92
2023/06/22 06:48:46;;;;;;;20.02;10.98;;;25.20;69.30;;;;;;4767900;29;20051;-91
2023/06/22 06:51:13;;;;;;;18.50;10.43;;;25.30;69.20;;;;;;4779611;29;20080;-91
2023/06/22 06:53:41;;;;;;;17.67;10.80;;;25.50;68.20;;;;;;4770139;29;20588;-91
2023/06/22 06:56:10;;;;;;;22.48;11.93;;;25.50;68.40;;;;;;4780336;29;20134;-91
2023/06/22 06:58:42;;;;;;;18.27;11.52;;;25.60;68.70;;;;;;4761733;29;20052;-91
2023/06/22 07:01:09;;;;;;;20.75;11.48;;;25.60;68.20;;;;;;4780315;29;20055;-91
2023/06/22 07:03:37;;;;;;;20.03;11.77;;;25.60;68.00;;;;;;4781660;29;20055;-91
2023/06/22 07:06:04;;;;;;;16.75;10.48;;;25.60;69.30;;;;;;4784774;29;20054;-91
2023/06/22 07:08:31;;;;;;;19.83;11.23;;;25.70;69.20;;;;;;4787045;29;20506;-91
2023/06/22 07:10:58;;;;;;;18.58;10.57;;;25.90;68.70;;;;;;4782444;29;20047;-91
2023/06/22 07:13:25;;;;;;;19.83;11.45;;;26.00;68.70;;;;;;4783544;29;20062;-91
2023/06/22 07:15:53;;;;;;;16.67;10.63;;;26.10;68.90;;;;;;4770342;29;20079;-91
2023/06/22 07:18:20;;;;;;;17.17;10.20;;;26.10;69.30;;;;;;4780599;29;20054;-91
2023/06/22 07:20:47;;;;;;;19.52;12.00;;;26.00;67.90;;;;;;4771640;29;20092;-91
2023/06/22 07:23:14;;;;;;;19.08;11.18;;;26.00;67.10;;;;;;4768360;29;20489;-91
2023/06/22 07:25:41;;;;;;;20.80;10.70;;;26.10;67.70;;;;;;4769745;29;20540;-91
2023/06/22 07:28:09;;;;;;;18.33;9.80;;;26.30;67.90;;;;;;4763039;29;20083;-92
2023/06/22 07:30:37;;;;;;;19.58;10.45;;;26.50;67.70;;;;;;4782878;29;20104;-92
2023/06/22 07:33:07;;;;;;;18.42;11.13;;;26.60;66.50;;;;;;4782779;29;20047;-92
2023/06/22 07:35:36;;;;;;;16.85;9.90;;;26.60;66.20;;;;;;4781141;29;20518;-91
2023/06/22 07:38:03;;;;;;;18.95;11.27;;;26.60;66.70;;;;;;4776601;30;20048;-92
2023/06/22 07:40:32;;;;;;;20.03;12.53;;;26.60;66.40;;;;;;4773293;29;20081;-92
2023/06/22 07:43:00;;;;;;;22.25;12.27;;;26.60;66.60;;;;;;4783046;29;20047;-92
2023/06/22 07:45:30;;;;;;;18.05;12.68;;;26.60;66.80;;;;;;4766332;29;20146;-92
2023/06/22 07:47:57;;;;;;;20.45;12.63;;;26.60;66.30;;;;;;4785122;29;20126;-92
2023/06/22 07:50:24;;;;;;;21.23;13.43;;;26.80;66.00;;;;;;4784254;29;20055;-92
2023/06/22 07:52:52;;;;;;;21.13;14.53;;;26.90;66.80;;;;;;4785089;29;20054;-92
2023/06/22 07:55:19;;;;;;;22.20;13.65;;;26.80;65.50;;;;;;4782587;30;20055;-92
2023/06/22 07:57:48;;;;;;;23.08;13.98;;;26.80;65.70;;;;;;4781160;29;20051;-91
2023/06/22 08:00:17;;;;;;;20.75;13.20;;;26.80;66.40;;;;;;4764941;30;20078;-92
2023/06/22 08:02:46;;;;;;;19.88;13.50;;;27.00;65.70;;;;;;4768650;29;20111;-91
2023/06/22 08:05:15;;;;;;;20.23;14.53;;;27.10;65.30;;;;;;4779519;29;20055;-91
2023/06/22 08:07:45;;;;;;;21.70;13.82;;;26.90;65.10;;;;;;4774038;29;20130;-91
2023/06/22 08:10:14;;;;;;;21.55;13.63;;;26.90;66.00;;;;;;4783947;29;20048;-92
2023/06/22 08:12:42;;;;;;;21.45;13.27;;;26.90;65.90;;;;;;4785145;29;20056;-91
2023/06/22 08:15:21;;;;;;;22.08;12.57;;;27.10;66.50;;;;;;4780830;29;20051;-92
2023/06/22 08:19:04;;;;;;;17.13;12.43;;;27.40;66.30;;;;;;4786285;29;20059;-92
2023/06/22 08:22:12;;;;;;;22.88;14.50;;;27.80;65.80;;;;;;4776332;29;20051;-92
2023/06/22 08:29:42;;;;;;;23.33;14.15;;;27.70;64.30;;;;;;4719211;30;20086;-92
2023/06/22 08:37:06;;;;;;;23.67;14.23;;;27.10;66.30;;;;;;4704203;30;20041;-92
2023/06/22 08:39:33;;;;;;;22.65;15.45;;;27.30;65.50;;;;;;4690668;30;20049;-92
2023/06/22 08:42:07;;;;;;;24.20;15.95;;;27.30;63.80;;;;;;4689648;30;20574;-92
2023/06/22 08:44:34;;;;;;;20.55;14.57;;;27.30;64.70;;;;;;4718402;30;20055;-92
2023/06/22 08:47:03;;;;;;;19.38;14.38;;;27.50;64.40;;;;;;4689341;30;20061;-92
2023/06/22 08:49:31;;;;;;;24.00;16.57;;;27.50;64.20;;;;;;4687743;30;20074;-92
2023/06/22 08:51:58;;;;;;;23.33;15.15;;;27.60;63.30;;;;;;4701349;30;20107;-92
2023/06/22 08:54:25;;;;;;;21.52;15.43;;;27.80;64.30;;;;;;4700308;30;20056;-92
2023/06/22 09:01:28;;;;;;;20.77;14.80;;;28.10;63.50;;;;;;4725484;30;20098;-92
2023/06/22 09:03:57;;;;;;;22.30;16.07;;;28.10;63.30;;;;;;4745947;30;20084;-92
2023/06/22 09:06:25;;;;;;;22.95;15.80;;;28.20;61.80;;;;;;4768809;29;20051;-92
2023/06/22 09:08:52;;;;;;;21.10;15.20;;;28.20;61.30;;;;;;4783483;30;20104;-92
2023/06/22 09:11:20;;;;;;;18.98;14.75;;;28.10;61.60;;;;;;4769623;29;20059;-92
2023/06/22 09:13:47;;;;;;;17.67;13.68;;;28.20;62.50;;;;;;4773373;29;20108;-92
2023/06/22 09:16:14;;;;;;;18.47;14.43;;;28.40;61.60;;;;;;4783807;29;20434;-92
2023/06/22 09:18:42;;;;;;;17.38;13.63;;;28.60;61.80;;;;;;4774952;29;20421;-93
2023/06/22 09:21:09;;;;;;;17.70;13.60;;;28.50;60.50;;;;;;4789742;29;20043;-92
2023/06/22 09:23:36;;;;;;;18.80;13.68;;;28.50;62.50;;;;;;4792005;29;20072;-91
2023/06/22 09:26:04;;;;;;;16.40;12.20;;;28.50;60.60;;;;;;4787389;29;20051;-92
2023/06/22 09:28:31;;;;;;;18.10;13.30;;;28.50;61.50;;;;;;4779221;30;20138;-92
2023/06/22 09:31:29;;;;;;;16.85;13.38;;;28.60;61.00;;;;;;4774244;30;20093;-92
2023/06/22 09:34:23;;;;;;;17.88;13.93;;;28.80;61.50;;;;;;4767736;30;20464;-92
2023/06/22 09:36:50;;;;;;;20.98;13.30;;;28.70;60.50;;;;;;4772268;29;20073;-92
2023/06/22 09:39:18;;;;;;;14.85;10.90;;;28.70;61.60;;;;;;4777002;29;20108;-90
2023/06/22 09:41:45;;;;;;;16.90;12.00;;;28.40;58.80;;;;;;4788005;29;20043;-91
2023/06/22 09:44:13;;;;;;;17.33;11.98;;;28.30;59.10;;;;;;4775769;30;20047;-91
2023/06/22 09:46:40;;;;;;;17.63;13.32;;;28.20;60.80;;;;;;4778814;30;20055;-92
2023/06/22 09:49:07;;;;;;;18.27;11.98;;;28.20;60.70;;;;;;4784977;29;20058;-92
2023/06/22 09:51:34;;;;;;;15.07;10.90;;;28.20;60.50;;;;;;4778596;29;20052;-92
2023/06/22 09:54:02;;;;;;;13.17;10.23;;;28.10;59.70;;;;;;4778453;29;20081;-92
2023/06/22 09:56:30;;;;;;;16.60;11.93;;;28.10;60.30;;;;;;4782504;29;20053;-93
2023/06/22 09:58:57;;;;;;;15.82;11.25;;;28.30;59.10;;;;;;4783788;29;20043;-92
2023/06/22 10:01:43;;;;;;;16.60;11.98;;;28.40;59.10;;;;;;4777879;30;20055;-92
2023/06/22 10:04:10;;;;;;;16.80;11.68;;;28.60;58.40;;;;;;4779207;30;20603;-92
2023/06/22 10:06:40;;;;;;;16.80;12.63;;;28.80;59.90;;;;;;4776568;29;20141;-91
2023/06/22 10:09:08;;;;;;;17.85;12.02;;;28.90;58.30;;;;;;4780076;29;20086;-92
2023/06/22 10:11:36;;;;;;;17.13;11.80;;;28.70;58.90;;;;;;4792042;29;20054;-92
2023/06/22 10:14:08;;;;;;;19.05;12.68;;;28.60;58.60;;;;;;4779352;30;20521;-92
2023/06/22 10:16:40;;;;;;;14.15;10.77;;;28.60;58.30;;;;;;4783607;30;20051;-92
2023/06/22 10:19:09;;;;;;;16.73;11.93;;;28.70;56.20;;;;;;4766753;29;20057;-92
2023/06/22 10:21:37;;;;;;;15.05;11.73;;;28.70;56.20;;;;;;4789649;29;20049;-91
2023/06/22 10:24:08;;;;;;;16.98;11.10;;;28.80;57.50;;;;;;4779973;29;20039;-92
2023/06/22 10:26:36;;;;;;;17.63;12.32;;;28.80;57.30;;;;;;4776499;29;20055;-93
2023/06/22 10:29:06;;;;;;;17.70;12.35;;;28.80;58.00;;;;;;4788119;30;20463;-92
2023/06/22 10:31:43;;;;;;;16.57;12.37;;;28.90;57.90;;;;;;4786207;29;20513;-92
2023/06/22 10:34:13;;;;;;;18.20;11.90;;;29.00;56.10;;;;;;4791381;29;20165;-93
2023/06/22 10:36:41;;;;;;;17.92;13.90;;;29.00;57.40;;;;;;4790940;29;20082;-93
2023/06/22 10:39:08;;;;;;;18.58;12.88;;;29.00;57.80;;;;;;4788584;29;20498;-92
2023/06/22 10:41:39;;;;;;;18.50;14.10;;;29.10;56.60;;;;;;4782798;30;20476;-93
2023/06/22 10:44:07;;;;;;;19.13;13.10;;;29.20;56.80;;;;;;4782486;29;20391;-92
2023/06/22 10:46:34;;;;;;;18.80;13.98;;;29.40;57.80;;;;;;4786074;30;20051;-92
2023/06/22 10:49:01;;;;;;;17.95;14.18;;;29.50;56.10;;;;;;4761585;30;20526;-93
2023/06/22 10:51:32;;;;;;;18.40;12.48;;;29.40;57.50;;;;;;4773273;30;20132;-92
2023/06/22 10:54:04;;;;;;;16.75;12.55;;;29.40;56.30;;;;;;4771333;29;20062;-93
2023/06/22 10:56:33;;;;;;;17.43;12.53;;;29.60;57.20;;;;;;4778576;30;20051;-92
2023/06/22 10:59:01;;;;;;;17.17;12.45;;;29.80;58.30;;;;;;4758355;30;20101;-92
2023/06/22 11:01:31;;;;;;;15.90;12.48;;;30.00;56.20;;;;;;4791031;29;20066;-93
2023/06/22 11:04:03;;;;;;;16.65;11.98;;;29.90;55.00;;;;;;4767750;30;20101;-92
2023/06/22 11:06:31;;;;;;;15.70;13.00;;;30.00;57.70;;;;;;4770478;30;20596;-93
2023/06/22 11:08:59;;;;;;;17.97;13.30;;;30.20;57.80;;;;;;4756853;30;20454;-92
2023/06/22 11:11:43;;;;;;;17.90;13.50;;;30.20;56.00;;;;;;4780340;29;20055;-92
2023/06/22 11:14:10;;;;;;;17.42;13.57;;;30.20;54.70;;;;;;4760397;30;20138;-93
2023/06/22 11:16:40;;;;;;;17.95;12.68;;;30.30;55.10;;;;;;4782559;30;20059;-93
2023/06/22 11:19:08;;;;;;;16.88;13.25;;;30.30;55.00;;;;;;4779032;29;20053;-93
2023/06/22 11:21:36;;;;;;;16.30;12.97;;;30.10;54.30;;;;;;4773297;29;20051;-93
2023/06/22 11:24:07;;;;;;;20.00;13.20;;;30.00;53.80;;;;;;4794349;29;20084;-92
2023/06/22 11:26:35;;;;;;;18.27;13.88;;;30.10;54.80;;;;;;4782722;30;20055;-94
2023/06/22 11:29:05;;;;;;;18.42;13.98;;;30.20;54.80;;;;;;4778874;29;20058;-93
2023/06/22 11:31:32;;;;;;;18.58;14.30;;;30.30;55.60;;;;;;4784233;29;20058;-92
2023/06/22 11:34:00;;;;;;;20.60;13.90;;;30.30;55.50;;;;;;4779491;29;20141;-92
2023/06/22 11:36:28;;;;;;;19.70;14.48;;;30.40;56.00;;;;;;4775478;29;20529;-92
2023/06/22 11:38:56;;;;;;;19.83;14.48;;;30.30;55.30;;;;;;4772902;30;20048;-93
2023/06/22 11:41:23;;;;;;;19.35;14.65;;;30.10;56.90;;;;;;4792255;29;20083;-92
2023/06/22 11:43:51;;;;;;;19.55;15.68;;;30.20;57.20;;;;;;4792740;29;20055;-93
2023/06/22 11:46:18;;;;;;;15.97;13.17;;;30.20;55.00;;;;;;4777254;30;20051;-93
2023/06/22 11:48:48;;;;;;;19.42;14.13;;;30.10;55.40;;;;;;4775854;30;20143;-93
2023/06/22 11:51:18;;;;;;;19.13;13.70;;;30.10;54.00;;;;;;4788438;29;20055;-93
2023/06/22 11:53:45;;;;;;;17.10;13.70;;;30.10;56.00;;;;;;4778768;29;20054;-93
2023/06/22 11:56:12;;;;;;;17.90;13.15;;;30.30;54.60;;;;;;4786157;30;20074;-93
2023/06/22 11:58:40;;;;;;;18.07;13.17;;;30.20;55.90;;;;;;4769324;29;20058;-93
2023/06/22 12:01:07;;;;;;;17.88;12.82;;;30.30;54.10;;;;;;4783711;30;20081;-93
2023/06/22 12:03:34;;;;;;;16.13;12.73;;;30.50;54.80;;;;;;4775968;30;20383;-93
2023/06/22 12:06:02;;;;;;;15.98;12.80;;;30.60;54.80;;;;;;4789454;29;20054;-92
2023/06/22 12:08:29;;;;;;;17.13;13.73;;;30.80;54.10;;;;;;4775740;30;20487;-93
2023/06/22 12:10:57;;;;;;;15.57;13.37;;;30.90;53.40;;;;;;4768711;29;20047;-93
2023/06/22 12:13:25;;;;;;;19.02;14.63;;;31.00;53.20;;;;;;4775669;30;20541;-93
2023/06/22 12:15:52;;;;;;;17.38;13.73;;;30.90;52.50;;;;;;4775398;30;20150;-93
2023/06/22 12:18:21;;;;;;;17.40;14.48;;;30.90;53.30;;;;;;4775218;30;20089;-92
2023/06/22 12:20:48;;;;;;;20.33;15.18;;;30.90;54.70;;;;;;4787047;29;20113;-93
2023/06/22 12:23:15;;;;;;;21.43;14.23;;;31.10;54.70;;;;;;4774715;30;20083;-93
2023/06/22 12:25:44;;;;;;;18.80;13.93;;;31.00;55.10;;;;;;4767787;29;20045;-93
2023/06/22 12:28:11;;;;;;;18.30;14.15;;;30.90;53.80;;;;;;4789563;29;20059;-93
2023/06/22 12:30:39;;;;;;;18.08;14.40;;;30.90;52.50;;;;;;4792949;29;20536;-93
2023/06/22 12:33:06;;;;;;;16.48;13.52;;;30.70;53.90;;;;;;4786899;30;20058;-93
2023/06/22 12:35:34;;;;;;;18.23;14.47;;;30.90;53.90;;;;;;4760553;30;20067;-93
2023/06/22 12:38:02;;;;;;;19.00;13.57;;;30.90;54.30;;;;;;4763276;29;20565;-91
2023/06/22 12:40:29;;;;;;;18.73;13.82;;;30.90;53.50;;;;;;4768531;30;20047;-92
2023/06/22 12:42:57;;;;;;;16.13;13.63;;;30.90;53.50;;;;;;4778061;29;20046;-93
2023/06/22 12:45:28;;;;;;;17.95;13.45;;;30.90;53.50;;;;;;4783031;29;20104;-91
2023/06/22 12:47:58;;;;;;;18.47;14.70;;;30.90;52.40;;;;;;4783608;29;20055;-91
2023/06/22 12:50:25;;;;;;;20.17;14.43;;;31.00;54.10;;;;;;4766590;29;20066;-92
2023/06/22 12:52:52;;;;;;;19.65;14.55;;;30.90;53.40;;;;;;4777749;29;20388;-93
2023/06/22 12:55:19;;;;;;;17.60;13.77;;;31.10;52.20;;;;;;4779066;29;20073;-88
2023/06/22 12:57:46;;;;;;;18.85;13.90;;;31.20;52.20;;;;;;4764355;29;20047;-90